createdAt,value
2023-03-22T00:01:44.674Z,11.27
2023-03-22T00:04:14.538Z,11.32
2023-03-22T00:06:42.832Z,11.40
2023-03-22T00:09:12.654Z,11.44
2023-03-22T00:11:41.545Z,11.55
2023-03-22T00:14:11.573Z,11.62
2023-03-22T00:16:40.791Z,11.65
2023-03-22T00:19:08.988Z,11.73
2023-03-22T00:21:37.308Z,11.87
2023-03-22T00:24:06.371Z,11.87
2023-03-22T00:26:35.908Z,11.89
2023-03-22T00:29:06.888Z,11.81
2023-03-22T00:31:36.162Z,11.82
2023-03-22T00:34:04.598Z,11.92
2023-03-22T00:36:34.848Z,11.95
2023-03-22T00:39:04.315Z,11.96
2023-03-22T00:41:32.893Z,11.91
2023-03-22T00:44:03.420Z,11.99
2023-03-22T00:46:32.619Z,12.06
2023-03-22T00:49:00.736Z,12.10
2023-03-22T00:51:29.186Z,12.18
2023-03-22T00:53:57.485Z,12.26
2023-03-22T00:56:29.069Z,12.29
2023-03-22T00:59:14.820Z,12.27
2023-03-22T01:01:44.299Z,12.16
2023-03-22T01:04:15.615Z,12.07
2023-03-22T01:06:44.066Z,12.00
2023-03-22T01:09:15.055Z,11.79
2023-03-22T01:11:43.677Z,11.73
2023-03-22T01:14:16.099Z,11.78
2023-03-22T01:16:44.320Z,11.88
2023-03-22T01:19:16.445Z,11.91
2023-03-22T01:21:49.275Z,11.71
2023-03-22T01:24:17.913Z,11.64
2023-03-22T01:26:46.434Z,11.58
2023-03-22T01:29:18.383Z,11.77
2023-03-22T01:31:46.977Z,11.82
2023-03-22T01:34:40.180Z,11.59
2023-03-22T01:37:10.670Z,11.54
2023-03-22T01:39:43.666Z,11.70
2023-03-22T01:42:15.689Z,11.72
2023-03-22T01:44:59.450Z,11.81
2023-03-22T01:47:29.374Z,11.77
2023-03-22T01:49:58.014Z,11.69
2023-03-22T01:52:32.458Z,11.75
2023-03-22T01:55:11.511Z,11.75
2023-03-22T01:57:48.688Z,11.73
2023-03-22T02:00:22.887Z,11.73
2023-03-22T02:06:06.025Z,11.94
2023-03-22T02:08:34.713Z,11.65
2023-03-22T02:11:08.942Z,11.06
2023-03-22T02:14:03.613Z,10.63
2023-03-22T02:16:55.053Z,10.90
2023-03-22T02:19:42.906Z,11.27
2023-03-22T02:22:28.327Z,11.38
2023-03-22T02:25:07.653Z,11.36
2023-03-22T02:27:40.618Z,11.29
2023-03-22T02:30:19.584Z,11.33
2023-03-22T02:33:01.823Z,11.43
2023-03-22T02:35:41.279Z,11.39
2023-03-22T02:38:25.413Z,11.34
2023-03-22T02:41:00.574Z,11.30
2023-03-22T02:43:38.822Z,11.12
2023-03-22T02:46:09.920Z,11.16
2023-03-22T02:48:42.023Z,10.99
2023-03-22T02:51:14.202Z,10.88
2023-03-22T02:53:45.589Z,10.75
2023-03-22T02:56:17.508Z,10.92
2023-03-22T02:58:47.306Z,11.06
2023-03-22T03:01:19.888Z,11.07
2023-03-22T03:03:55.513Z,11.15
2023-03-22T03:06:26.789Z,11.31
2023-03-22T03:08:58.109Z,11.30
2023-03-22T03:11:31.553Z,11.37
2023-03-22T03:14:03.476Z,11.32
2023-03-22T03:16:35.306Z,11.38
2023-03-22T03:19:08.887Z,11.54
2023-03-22T03:21:42.587Z,11.79
2023-03-22T03:24:18.821Z,11.89
2023-03-22T03:26:53.183Z,11.79
2023-03-22T03:29:23.627Z,11.86
2023-03-22T03:31:53.838Z,11.92
2023-03-22T03:34:25.668Z,11.85
2023-03-22T03:36:55.855Z,11.82
2023-03-22T03:39:25.920Z,11.78
2023-03-22T03:41:56.432Z,11.90
2023-03-22T03:44:24.588Z,11.88
2023-03-22T03:46:54.085Z,11.78
2023-03-22T03:49:23.207Z,11.74
2023-03-22T03:51:53.849Z,11.84
2023-03-22T03:54:22.673Z,11.57
2023-03-22T03:56:51.025Z,11.50
2023-03-22T03:59:21.982Z,11.41
2023-03-22T04:01:52.764Z,11.59
2023-03-22T04:04:29.072Z,11.57
2023-03-22T04:07:05.691Z,11.43
2023-03-22T04:09:37.486Z,11.56
2023-03-22T04:12:13.642Z,11.48
2023-03-22T04:14:45.614Z,11.50
2023-03-22T04:17:22.125Z,11.52
2023-03-22T04:19:49.918Z,11.65
2023-03-22T04:22:18.593Z,11.54
2023-03-22T04:24:50.319Z,11.47
2023-03-22T04:27:22.884Z,11.52
2023-03-22T04:30:03.012Z,11.52
2023-03-22T04:32:51.409Z,11.56
2023-03-22T04:35:25.335Z,11.58
2023-03-22T04:37:55.134Z,11.68
2023-03-22T04:40:26.567Z,11.59
2023-03-22T04:43:05.498Z,11.47
2023-03-22T04:46:12.714Z,11.38
2023-03-22T04:48:48.066Z,11.39
2023-03-22T04:51:17.133Z,11.28
2023-03-22T04:54:00.756Z,11.09
2023-03-22T04:56:29.003Z,10.96
2023-03-22T04:58:57.313Z,10.90
2023-03-22T05:01:27.489Z,10.86
2023-03-22T05:04:05.458Z,10.76
2023-03-22T05:06:34.236Z,10.65
2023-03-22T05:09:12.571Z,10.57
2023-03-22T05:11:41.303Z,10.48
2023-03-22T05:14:29.515Z,10.40
2023-03-22T05:16:59.193Z,10.42
2023-03-22T05:19:30.373Z,10.41
2023-03-22T05:22:02.028Z,10.45
2023-03-22T05:24:42.802Z,10.31
2023-03-22T05:27:16.407Z,10.21
2023-03-22T05:29:46.965Z,10.17
2023-03-22T05:32:30.309Z,10.22
2023-03-22T05:35:03.704Z,10.23
2023-03-22T05:37:38.927Z,10.42
2023-03-22T05:40:09.988Z,10.50
2023-03-22T05:42:42.707Z,10.68
2023-03-22T05:45:22.391Z,10.82
2023-03-22T05:48:01.848Z,10.94
2023-03-22T05:50:31.236Z,11.04
2023-03-22T05:53:00.133Z,10.91
2023-03-22T05:55:34.254Z,10.84
2023-03-22T05:58:05.838Z,10.62
2023-03-22T06:00:38.450Z,10.55
2023-03-22T06:03:23.595Z,10.35
2023-03-22T06:06:07.368Z,10.27
2023-03-22T06:08:41.701Z,10.32
2023-03-22T06:11:10.529Z,10.26
2023-03-22T06:13:38.764Z,10.27
2023-03-22T06:16:08.745Z,10.19
2023-03-22T06:18:38.279Z,10.27
2023-03-22T06:21:11.103Z,10.31
2023-03-22T06:23:39.281Z,10.47
2023-03-22T06:26:11.503Z,10.47
2023-03-22T06:28:43.907Z,10.86
2023-03-22T06:31:14.562Z,11.04
2023-03-22T06:33:49.882Z,11.33
2023-03-22T06:36:42.519Z,11.67
2023-03-22T06:39:25.646Z,11.90
2023-03-22T06:41:55.065Z,11.82
2023-03-22T06:44:23.583Z,11.90
2023-03-22T06:46:51.603Z,12.17
2023-03-22T06:49:44.583Z,12.55
2023-03-22T06:52:18.926Z,13.19
2023-03-22T06:54:46.753Z,13.85
2023-03-22T06:57:15.743Z,13.93
2023-03-22T06:59:43.827Z,13.50
2023-03-22T07:02:13.096Z,13.26
2023-03-22T07:04:48.575Z,13.18
2023-03-22T07:07:16.917Z,13.10
2023-03-22T07:09:45.914Z,13.04
2023-03-22T07:12:14.032Z,12.89
2023-03-22T07:14:42.286Z,12.80
2023-03-22T07:17:28.978Z,12.64
2023-03-22T07:19:58.261Z,12.44
2023-03-22T07:22:27.593Z,12.31
2023-03-22T07:24:59.392Z,12.56
2023-03-22T07:27:31.000Z,13.10
2023-03-22T07:30:00.238Z,13.70
2023-03-22T07:32:29.318Z,14.18
2023-03-22T07:35:11.913Z,14.75
2023-03-22T07:37:41.674Z,15.05
2023-03-22T07:40:21.114Z,15.16
2023-03-22T07:42:51.216Z,15.21
2023-03-22T07:45:34.818Z,15.14
2023-03-22T07:48:22.830Z,14.96
2023-03-22T07:51:00.798Z,14.82
2023-03-22T07:53:30.020Z,15.14
2023-03-22T07:55:58.629Z,15.69
2023-03-22T07:58:27.141Z,15.88
2023-03-22T08:01:04.825Z,16.16
2023-03-22T08:03:54.936Z,15.65
2023-03-22T08:06:37.160Z,16.01
2023-03-22T08:09:05.222Z,16.65
2023-03-22T08:11:33.737Z,16.65
2023-03-22T08:14:01.866Z,16.54
2023-03-22T08:16:32.844Z,16.22
2023-03-22T08:19:03.109Z,16.69
2023-03-22T08:21:36.633Z,16.94
2023-03-22T08:24:07.635Z,16.35
2023-03-22T08:27:10.832Z,16.38
2023-03-22T08:29:51.900Z,16.40
2023-03-22T08:32:22.300Z,16.63
2023-03-22T08:34:51.961Z,16.97
2023-03-22T08:37:21.972Z,17.20
2023-03-22T08:39:50.540Z,16.84
2023-03-22T08:42:38.485Z,16.64
2023-03-22T08:45:07.997Z,17.21
2023-03-22T08:47:38.503Z,17.47
2023-03-22T08:50:09.870Z,17.37
2023-03-22T08:53:02.079Z,17.40
2023-03-22T08:55:36.154Z,17.85
2023-03-22T08:58:11.454Z,17.97
2023-03-22T09:01:06.424Z,18.49
2023-03-22T09:03:45.564Z,18.00
2023-03-22T09:06:14.467Z,17.59
2023-03-22T09:08:52.473Z,17.62
2023-03-22T09:11:23.300Z,17.72
2023-03-22T09:13:51.491Z,17.59
2023-03-22T09:16:19.930Z,17.98
2023-03-22T09:18:48.555Z,18.39
2023-03-22T09:21:19.779Z,18.21
2023-03-22T09:23:54.144Z,17.91
2023-03-22T09:26:28.159Z,18.43
2023-03-22T09:28:56.450Z,18.40
2023-03-22T09:31:28.702Z,18.68
2023-03-22T09:34:10.839Z,18.73
2023-03-22T09:36:40.570Z,18.63
2023-03-22T09:39:10.416Z,18.27
2023-03-22T09:41:40.657Z,18.31
2023-03-22T09:44:10.895Z,18.12
2023-03-22T09:46:40.744Z,18.05
2023-03-22T09:49:13.218Z,17.91
2023-03-22T09:51:42.612Z,18.10
2023-03-22T09:54:23.411Z,18.19
2023-03-22T09:56:56.345Z,17.78
2023-03-22T09:59:29.776Z,17.47
2023-03-22T10:02:00.176Z,17.62
2023-03-22T10:04:34.927Z,17.48
2023-03-22T10:07:08.591Z,17.30
2023-03-22T10:09:43.784Z,18.02
2023-03-22T10:12:18.524Z,18.58
2023-03-22T10:14:51.834Z,18.82
2023-03-22T10:17:21.473Z,19.51
2023-03-22T10:19:52.053Z,19.16
2023-03-22T10:22:25.317Z,19.06
2023-03-22T10:24:56.014Z,18.32
2023-03-22T10:27:24.678Z,17.96
2023-03-22T10:29:54.757Z,17.78
2023-03-22T10:32:28.247Z,18.36
2023-03-22T10:34:56.482Z,19.40
2023-03-22T10:37:26.100Z,20.72
2023-03-22T10:39:57.126Z,21.41
2023-03-22T10:42:26.716Z,22.90
2023-03-22T10:44:55.816Z,23.50
2023-03-22T10:47:28.164Z,24.60
2023-03-22T10:49:58.574Z,23.04
2023-03-22T10:52:37.016Z,22.95
2023-03-22T10:55:10.881Z,23.97
2023-03-22T10:57:40.194Z,23.21
2023-03-22T11:00:11.892Z,23.61
2023-03-22T11:02:46.346Z,23.48
2023-03-22T11:05:23.008Z,21.94
2023-03-22T11:07:51.740Z,22.80
2023-03-22T11:10:23.951Z,23.04
2023-03-22T11:12:53.473Z,23.29
2023-03-22T11:15:26.539Z,22.92
2023-03-22T11:17:58.737Z,22.94
2023-03-22T11:20:29.186Z,24.57
2023-03-22T11:23:01.161Z,26.33
2023-03-22T11:25:32.106Z,26.52
2023-03-22T11:28:09.516Z,25.83
2023-03-22T11:30:38.559Z,25.79
2023-03-22T11:33:17.004Z,25.50
2023-03-22T11:35:45.947Z,25.41
2023-03-22T11:38:23.760Z,24.41
2023-03-22T11:40:56.020Z,22.19
2023-03-22T11:43:25.602Z,21.73
2023-03-22T11:45:55.893Z,21.07
2023-03-22T11:48:25.048Z,22.24
2023-03-22T11:50:54.275Z,22.39
2023-03-22T11:53:25.622Z,20.64
2023-03-22T11:55:57.198Z,20.86
2023-03-22T11:58:29.070Z,21.81
2023-03-22T12:00:59.951Z,24.11
2023-03-22T12:03:29.691Z,24.95
2023-03-22T12:05:59.215Z,24.79
2023-03-22T12:08:29.485Z,25.57
2023-03-22T12:11:03.997Z,26.28
2023-03-22T12:13:34.131Z,26.41
2023-03-22T12:16:03.319Z,26.49
2023-03-22T12:18:33.541Z,24.46
2023-03-22T12:21:01.705Z,25.30
2023-03-22T12:23:31.101Z,24.64
2023-03-22T12:26:03.460Z,23.68
2023-03-22T12:28:34.727Z,24.40
2023-03-22T12:31:03.777Z,24.79
2023-03-22T12:33:34.074Z,25.38
2023-03-22T12:36:03.455Z,25.46
2023-03-22T12:38:36.323Z,25.09
2023-03-22T12:41:08.520Z,25.50
2023-03-22T12:43:41.057Z,26.54
2023-03-22T12:46:12.397Z,26.04
2023-03-22T12:48:44.037Z,26.10
2023-03-22T12:51:14.777Z,25.03
2023-03-22T12:53:45.032Z,24.01
2023-03-22T12:56:16.016Z,23.40
2023-03-22T12:58:48.742Z,24.99
2023-03-22T13:01:24.493Z,23.96
2023-03-22T13:03:55.163Z,24.86
2023-03-22T13:06:31.144Z,25.27
2023-03-22T13:09:03.721Z,26.00
2023-03-22T13:11:33.197Z,24.27
2023-03-22T13:14:01.312Z,24.38
2023-03-22T13:16:49.186Z,23.33
2023-03-22T13:19:34.901Z,24.84
2023-03-22T13:22:29.998Z,26.49
2023-03-22T13:25:02.396Z,27.08
2023-03-22T13:27:43.832Z,24.77
2023-03-22T13:30:18.043Z,25.73
2023-03-22T13:32:53.223Z,25.50
2023-03-22T13:35:24.995Z,25.01
2023-03-22T13:37:53.463Z,25.34
2023-03-22T13:40:27.477Z,26.61
2023-03-22T13:43:09.306Z,26.04
2023-03-22T13:45:38.357Z,26.62
2023-03-22T13:48:10.970Z,26.10
2023-03-22T13:50:40.133Z,24.81
2023-03-22T13:53:15.916Z,24.27
2023-03-22T13:55:58.323Z,27.09
2023-03-22T13:58:37.564Z,27.31
2023-03-22T14:01:07.179Z,26.66
2023-03-22T14:03:36.924Z,26.64
2023-03-22T14:06:09.543Z,24.61
2023-03-22T14:08:38.493Z,22.37
2023-03-22T14:11:14.713Z,22.07
2023-03-22T14:13:47.075Z,22.43
2023-03-22T14:16:18.402Z,22.73
2023-03-22T14:18:48.400Z,22.77
2023-03-22T14:21:18.542Z,22.29
